Time;durP1;ratioP1;P1;durP2;ratioP2;P2;SDS_P1;SDS_P2;PMS_P1;PMS_P2;Temp;Humidity;BMP_temperature;BMP_pressure;BME280_temperature;BME280_humidity;BME280_pressure;Samples;Min_cycle;Max_cycle;Signal;HPM_P1;HPM_P2
2021/10/09 00:01:32;;;;;;;19.43;16.50;;;9.10;99.90;;;;;;4951053;29;20606;-55
2021/10/09 00:03:58;;;;;;;21.60;15.33;;;9.60;99.90;;;;;;4954481;29;20208;-55
2021/10/09 00:06:24;;;;;;;19.23;16.40;;;9.40;99.90;;;;;;4953566;28;20746;-54
2021/10/09 00:08:50;;;;;;;19.17;15.30;;;9.30;99.90;;;;;;4947331;28;20303;-55
2021/10/09 00:11:33;;;;;;;18.97;15.93;;;9.20;99.90;;;;;;4948611;29;20189;-55
2021/10/09 00:13:59;;;;;;;20.60;16.38;;;9.20;99.90;;;;;;4953166;29;20628;-55
2021/10/09 00:16:25;;;;;;;19.02;15.52;;;9.20;99.90;;;;;;4951067;28;20224;-54
2021/10/09 00:18:50;;;;;;;20.63;15.87;;;9.10;99.90;;;;;;4953406;28;20241;-55
2021/10/09 00:21:16;;;;;;;18.67;16.47;;;9.10;99.90;;;;;;4953741;29;20196;-55
2021/10/09 00:23:42;;;;;;;20.73;16.37;;;8.90;99.90;;;;;;4946852;28;20261;-54
2021/10/09 00:26:07;;;;;;;18.30;16.00;;;8.80;99.90;;;;;;4953917;28;20181;-54
2021/10/09 00:28:33;;;;;;;18.10;14.93;;;8.90;99.90;;;;;;4949223;28;20689;-55
2021/10/09 00:30:59;;;;;;;20.10;15.87;;;9.00;99.90;;;;;;4948299;29;20284;-55
2021/10/09 00:33:24;;;;;;;20.97;17.17;;;9.00;99.90;;;;;;4954446;28;20279;-54
2021/10/09 00:35:50;;;;;;;21.90;16.50;;;8.90;99.90;;;;;;4953817;29;20577;-55
2021/10/09 00:38:15;;;;;;;23.30;17.47;;;8.90;99.90;;;;;;4952915;28;20275;-54
2021/10/09 00:40:41;;;;;;;20.10;15.10;;;8.80;99.90;;;;;;4949661;29;20659;-54
2021/10/09 00:43:07;;;;;;;20.03;15.93;;;9.20;99.90;;;;;;4953960;29;20213;-55
2021/10/09 00:45:32;;;;;;;18.30;15.37;;;8.90;99.90;;;;;;4945346;28;20643;-55
2021/10/09 00:47:58;;;;;;;20.73;15.03;;;8.80;99.90;;;;;;4953655;28;20288;-54
2021/10/09 00:50:24;;;;;;;18.90;15.70;;;9.10;99.90;;;;;;4953479;29;20295;-55
2021/10/09 00:52:54;;;;;;;22.47;16.03;;;9.00;99.90;;;;;;4952714;28;20662;-54
2021/10/09 00:55:20;;;;;;;18.25;15.38;;;8.90;99.90;;;;;;4953385;28;20197;-54
2021/10/09 00:57:47;;;;;;;20.83;15.85;;;8.80;99.90;;;;;;4953579;28;20184;-54
2021/10/09 01:00:14;;;;;;;18.70;14.15;;;8.80;99.90;;;;;;4951893;29;20601;-54
2021/10/09 01:02:39;;;;;;;19.15;15.50;;;9.10;99.90;;;;;;4947716;28;20316;-54
2021/10/09 01:05:08;;;;;;;18.83;15.20;;;9.20;99.90;;;;;;4953167;29;20272;-55
2021/10/09 01:07:33;;;;;;;18.60;15.55;;;8.90;99.90;;;;;;4953239;28;20199;-54
2021/10/09 01:10:00;;;;;;;17.10;14.80;;;8.90;99.90;;;;;;4950951;28;20296;-54
2021/10/09 01:12:27;;;;;;;20.70;14.75;;;8.80;99.90;;;;;;4953220;28;20195;-54
2021/10/09 01:14:53;;;;;;;19.10;15.10;;;8.90;99.90;;;;;;4947408;29;20205;-54
2021/10/09 01:17:18;;;;;;;20.23;15.93;;;8.80;99.90;;;;;;4952727;29;20185;-54
2021/10/09 01:19:44;;;;;;;22.20;15.67;;;8.80;99.90;;;;;;4948990;28;20678;-55
2021/10/09 01:22:10;;;;;;;20.10;15.50;;;8.50;99.90;;;;;;4950353;29;20205;-54
2021/10/09 01:24:37;;;;;;;18.50;15.68;;;8.80;99.90;;;;;;4946801;29;20480;-55
2021/10/09 01:27:04;;;;;;;19.15;14.05;;;8.50;99.90;;;;;;4952742;28;20684;-55
2021/10/09 01:29:30;;;;;;;18.33;15.18;;;8.60;99.90;;;;;;4949503;29;20631;-54
2021/10/09 01:31:56;;;;;;;18.00;14.82;;;8.60;99.90;;;;;;4949117;29;20247;-55
2021/10/09 01:34:28;;;;;;;18.75;13.95;;;8.70;99.90;;;;;;4952954;29;20189;-55
2021/10/09 01:36:54;;;;;;;20.35;15.35;;;8.90;99.90;;;;;;4950530;28;20657;-55
2021/10/09 01:39:20;;;;;;;18.92;15.65;;;8.50;99.90;;;;;;4950274;28;20295;-54
2021/10/09 01:41:48;;;;;;;20.30;15.70;;;8.50;99.90;;;;;;4952247;29;20222;-54
2021/10/09 01:44:15;;;;;;;19.75;15.00;;;8.70;99.90;;;;;;4951814;28;20538;-55
2021/10/09 01:46:42;;;;;;;19.45;14.52;;;8.60;99.90;;;;;;4945407;29;20884;-53
2021/10/09 01:49:09;;;;;;;20.05;16.15;;;8.50;99.90;;;;;;4952203;28;20209;-54
2021/10/09 01:51:35;;;;;;;21.52;16.27;;;8.40;99.90;;;;;;4951669;29;20188;-54
2021/10/09 01:54:01;;;;;;;21.33;15.68;;;8.50;99.90;;;;;;4948789;29;20196;-55
2021/10/09 01:56:27;;;;;;;20.05;14.98;;;8.40;99.90;;;;;;4960839;28;20188;-55
2021/10/09 01:58:53;;;;;;;21.13;16.02;;;8.50;99.90;;;;;;4962167;28;20701;-54
2021/10/09 02:01:19;;;;;;;19.57;15.57;;;8.50;99.90;;;;;;4950118;29;20192;-54
2021/10/09 02:03:47;;;;;;;18.73;15.10;;;8.40;99.90;;;;;;4942617;28;20226;-54
2021/10/09 02:06:14;;;;;;;20.48;15.82;;;8.50;99.90;;;;;;4946146;29;20440;-54
2021/10/09 02:08:39;;;;;;;19.10;15.50;;;8.30;99.90;;;;;;4944935;28;20232;-54
2021/10/09 02:11:08;;;;;;;18.80;14.90;;;8.20;99.90;;;;;;4946098;28;20216;-53
2021/10/09 02:19:02;;;;;;;18.10;13.43;;;8.20;99.90;;;;;;4951085;28;20626;-54
2021/10/09 02:26:50;;;;;;;20.00;14.23;;;8.30;99.90;;;;;;4945948;28;20650;-55
2021/10/09 02:29:15;;;;;;;17.37;14.30;;;8.20;99.90;;;;;;4941547;28;20220;-55
2021/10/09 02:31:41;;;;;;;16.57;14.23;;;8.20;99.90;;;;;;4946800;29;20192;-55
2021/10/09 02:34:07;;;;;;;16.53;14.53;;;8.20;99.90;;;;;;4947690;29;20193;-55
2021/10/09 02:36:32;;;;;;;20.30;15.57;;;8.00;99.90;;;;;;4952063;29;20415;-54
2021/10/09 02:38:58;;;;;;;17.70;14.70;;;8.30;99.90;;;;;;4949861;28;20217;-55
2021/10/09 02:41:23;;;;;;;22.63;16.87;;;8.00;99.90;;;;;;4951642;29;20205;-55
2021/10/09 02:43:49;;;;;;;24.87;16.83;;;8.20;99.90;;;;;;4946763;29;20268;-55
2021/10/09 02:46:15;;;;;;;22.67;16.70;;;8.30;99.90;;;;;;4943693;28;20193;-54
2021/10/09 02:48:40;;;;;;;23.20;16.40;;;8.10;99.90;;;;;;4944074;28;20209;-55
2021/10/09 02:51:06;;;;;;;23.30;16.47;;;8.00;99.90;;;;;;4948979;28;20195;-55
2021/10/09 02:53:32;;;;;;;23.57;15.93;;;8.20;99.90;;;;;;4951300;29;20225;-55
2021/10/09 02:55:58;;;;;;;19.95;16.30;;;7.90;99.90;;;;;;4947338;28;20660;-54
2021/10/09 02:58:24;;;;;;;18.10;15.43;;;7.90;99.90;;;;;;4939221;28;20213;-55
2021/10/09 03:00:50;;;;;;;18.30;14.70;;;8.10;99.90;;;;;;4949169;29;20197;-54
2021/10/09 03:03:16;;;;;;;21.50;15.60;;;8.20;99.90;;;;;;4947822;28;20282;-54
2021/10/09 03:05:41;;;;;;;19.00;15.13;;;8.00;99.90;;;;;;4947229;28;20196;-54
2021/10/09 03:08:07;;;;;;;23.40;14.87;;;8.00;99.90;;;;;;4941393;28;20566;-55
2021/10/09 03:10:33;;;;;;;19.60;14.33;;;8.00;99.90;;;;;;4948347;29;20200;-54
2021/10/09 03:12:59;;;;;;;18.60;14.67;;;8.20;99.90;;;;;;4950738;28;20942;-54
2021/10/09 03:15:25;;;;;;;20.88;15.73;;;8.00;99.90;;;;;;4947803;29;20284;-54
2021/10/09 03:17:50;;;;;;;21.73;15.33;;;8.00;99.90;;;;;;4939914;28;20281;-55
2021/10/09 03:20:16;;;;;;;18.10;13.97;;;7.70;99.90;;;;;;4945437;29;20458;-55
2021/10/09 03:22:44;;;;;;;19.10;16.10;;;8.10;99.90;;;;;;4944617;29;20228;-55
2021/10/09 03:25:10;;;;;;;19.55;16.23;;;7.80;99.90;;;;;;4943727;29;20875;-54
2021/10/09 03:27:37;;;;;;;20.45;14.73;;;7.60;99.90;;;;;;4949427;28;20197;-54
2021/10/09 03:30:07;;;;;;;17.40;14.13;;;7.90;99.90;;;;;;4944463;28;20194;-54
2021/10/09 03:32:33;;;;;;;23.13;15.63;;;7.70;99.90;;;;;;4951068;29;20600;-55
2021/10/09 03:34:59;;;;;;;22.58;15.43;;;8.00;99.90;;;;;;4947740;29;20193;-54
2021/10/09 03:37:25;;;;;;;19.80;15.10;;;7.90;99.90;;;;;;4951024;28;20189;-54
2021/10/09 03:39:53;;;;;;;23.13;16.23;;;7.90;99.90;;;;;;4949086;28;20209;-54
2021/10/09 03:42:23;;;;;;;17.30;14.35;;;7.80;99.90;;;;;;4952189;28;20191;-54
2021/10/09 03:44:54;;;;;;;23.90;14.70;;;7.90;99.90;;;;;;4953205;28;20244;-55
2021/10/09 03:47:48;;;;;;;17.30;15.27;;;7.70;99.90;;;;;;4955085;28;20249;-53
2021/10/09 03:50:33;;;;;;;20.30;14.60;;;7.50;99.90;;;;;;4949987;29;20194;-55
2021/10/09 03:53:00;;;;;;;22.90;14.75;;;7.60;99.90;;;;;;4943220;29;20197;-53
2021/10/09 03:55:25;;;;;;;17.98;14.32;;;7.40;99.90;;;;;;4954726;28;20193;-54
2021/10/09 03:57:51;;;;;;;17.40;14.80;;;7.60;99.90;;;;;;4953593;28;20694;-54
2021/10/09 04:00:18;;;;;;;19.27;15.17;;;7.70;99.90;;;;;;4950131;28;20192;-55
2021/10/09 04:02:44;;;;;;;20.25;14.70;;;7.90;99.90;;;;;;4954406;28;20212;-54
2021/10/09 04:05:10;;;;;;;19.00;14.38;;;7.70;99.90;;;;;;4953256;28;20228;-54
2021/10/09 04:07:36;;;;;;;18.13;14.83;;;7.70;99.90;;;;;;4953518;28;20546;-54
2021/10/09 04:10:04;;;;;;;20.45;15.80;;;7.60;99.90;;;;;;4953429;29;20445;-53
2021/10/09 04:12:30;;;;;;;18.73;16.33;;;7.50;99.90;;;;;;4953134;29;20185;-55
2021/10/09 04:14:55;;;;;;;17.43;14.10;;;7.70;99.90;;;;;;4950330;29;20193;-54
2021/10/09 04:17:21;;;;;;;20.53;15.27;;;7.70;99.90;;;;;;4954394;29;20276;-54
2021/10/09 04:19:47;;;;;;;17.60;13.40;;;7.60;99.90;;;;;;4953528;28;20663;-55
2021/10/09 04:22:13;;;;;;;17.33;14.50;;;7.50;99.90;;;;;;4953489;28;20191;-54
2021/10/09 04:24:39;;;;;;;17.03;14.20;;;7.70;99.90;;;;;;4952435;29;20208;-54
2021/10/09 04:27:05;;;;;;;19.15;14.20;;;7.80;99.90;;;;;;4953412;28;20624;-54
2021/10/09 04:29:31;;;;;;;16.98;14.15;;;6.90;99.90;;;;;;4944298;29;20201;-55
2021/10/09 04:31:57;;;;;;;17.07;14.00;;;7.30;99.90;;;;;;4953328;29;20581;-55
2021/10/09 04:34:22;;;;;;;17.80;14.97;;;7.40;99.90;;;;;;4948329;28;20813;-55
2021/10/09 04:36:48;;;;;;;18.43;15.00;;;6.90;99.90;;;;;;4953041;28;20207;-55
2021/10/09 04:39:14;;;;;;;17.77;15.00;;;7.20;99.90;;;;;;4951409;28;20528;-54
2021/10/09 04:41:39;;;;;;;20.50;14.17;;;7.30;99.90;;;;;;4951457;29;20196;-54
2021/10/09 04:44:05;;;;;;;18.27;14.20;;;6.90;99.90;;;;;;4950478;28;20313;-54
2021/10/09 04:46:31;;;;;;;19.05;15.02;;;7.10;99.90;;;;;;4936749;28;20228;-55
2021/10/09 04:48:57;;;;;;;16.60;14.60;;;7.20;99.90;;;;;;4951106;28;20228;-55
2021/10/09 04:51:24;;;;;;;18.00;14.00;;;7.20;99.90;;;;;;4952940;29;20566;-55
2021/10/09 04:53:50;;;;;;;16.98;13.60;;;7.50;99.90;;;;;;4951212;28;20197;-54
2021/10/09 04:56:16;;;;;;;17.57;15.20;;;7.30;99.90;;;;;;4952803;28;20253;-55
2021/10/09 04:58:42;;;;;;;15.50;13.10;;;7.20;99.90;;;;;;4950350;28;20209;-55
2021/10/09 05:01:07;;;;;;;16.80;13.50;;;7.20;99.90;;;;;;4945141;29;20422;-54
2021/10/09 05:03:33;;;;;;;16.83;14.10;;;7.50;99.90;;;;;;4952895;28;20296;-55
2021/10/09 05:05:59;;;;;;;18.93;14.70;;;7.20;99.90;;;;;;4952020;28;20181;-54
2021/10/09 05:08:25;;;;;;;17.33;14.73;;;7.40;99.90;;;;;;4950216;28;20208;-55
2021/10/09 05:10:50;;;;;;;17.30;15.10;;;7.10;99.90;;;;;;4952593;28;20662;-55
2021/10/09 05:13:16;;;;;;;18.33;14.83;;;7.20;99.90;;;;;;4956105;28;20216;-55
2021/10/09 05:15:43;;;;;;;17.50;14.50;;;7.10;99.90;;;;;;4959324;28;20192;-55
2021/10/09 05:18:10;;;;;;;18.63;15.23;;;7.10;99.90;;;;;;4961319;28;20634;-55
2021/10/09 05:20:36;;;;;;;17.42;14.00;;;7.40;99.90;;;;;;4952454;29;20193;-55
2021/10/09 05:23:02;;;;;;;18.33;14.48;;;7.40;99.90;;;;;;4948252;28;20200;-55
2021/10/09 05:25:29;;;;;;;20.20;14.57;;;7.20;99.90;;;;;;4951970;28;20189;-55
2021/10/09 05:28:40;;;;;;;18.50;15.00;;;7.20;99.90;;;;;;4952111;28;20698;-55
2021/10/09 05:30:47;;;;;;;22.63;14.40;;;7.10;99.90;;;;;;4942915;28;20189;-55
2021/10/09 05:35:48;;;;;;;17.58;14.52;;;7.00;99.90;;;;;;4952234;29;20184;-55
2021/10/09 05:38:15;;;;;;;19.73;14.50;;;7.10;99.90;;;;;;4950915;28;20698;-55
2021/10/09 05:40:41;;;;;;;18.52;14.32;;;7.10;99.90;;;;;;4945775;28;20292;-54
2021/10/09 05:43:07;;;;;;;19.55;13.93;;;7.20;99.90;;;;;;4952376;29;20203;-55
2021/10/09 05:45:34;;;;;;;18.67;14.43;;;7.00;99.90;;;;;;4947057;28;20545;-54
2021/10/09 05:48:00;;;;;;;17.05;13.57;;;7.20;99.90;;;;;;4951508;28;20213;-55
2021/10/09 05:50:33;;;;;;;19.33;15.38;;;7.20;99.90;;;;;;4949414;29;20181;-55
2021/10/09 05:55:35;;;;;;;20.52;15.30;;;7.00;99.90;;;;;;4950922;28;20659;-55
2021/10/09 06:44:35;;;;;;;20.63;14.63;;;7.60;99.90;;;;;;4950855;29;20756;-55
2021/10/09 07:00:35;;;;;;;19.08;15.30;;;8.10;99.90;;;;;;4944379;29;20313;-55
2021/10/09 07:03:01;;;;;;;20.30;16.47;;;8.30;99.90;;;;;;4949104;28;20713;-55
2021/10/09 07:05:27;;;;;;;17.60;14.20;;;8.50;99.90;;;;;;4951276;28;20276;-55
2021/10/09 07:07:58;;;;;;;23.70;15.87;;;8.70;99.90;;;;;;4946065;28;20177;-55
2021/10/09 07:10:24;;;;;;;20.23;16.05;;;9.00;99.90;;;;;;4951371;29;20432;-60
2021/10/09 07:12:49;;;;;;;19.97;15.07;;;8.90;99.90;;;;;;4948938;28;20204;-60
2021/10/09 07:15:15;;;;;;;18.20;15.07;;;9.30;99.90;;;;;;4946196;28;20487;-55
2021/10/09 07:17:42;;;;;;;20.33;14.37;;;9.60;99.90;;;;;;4954746;28;20193;-55
2021/10/09 07:20:08;;;;;;;18.10;14.48;;;9.50;99.90;;;;;;4954854;28;20466;-55
2021/10/09 07:22:34;;;;;;;19.65;15.30;;;9.60;99.90;;;;;;4954700;28;20197;-55
2021/10/09 07:25:01;;;;;;;19.83;15.00;;;9.90;99.90;;;;;;4950181;29;20706;-55
2021/10/09 07:27:27;;;;;;;16.00;14.25;;;9.90;99.90;;;;;;4955014;28;20181;-55
2021/10/09 07:29:53;;;;;;;21.58;16.33;;;9.90;99.90;;;;;;4949986;28;20284;-56
2021/10/09 07:32:18;;;;;;;18.33;15.80;;;10.10;99.90;;;;;;4956367;28;20272;-55
2021/10/09 07:34:44;;;;;;;22.10;16.53;;;9.70;99.90;;;;;;4950143;28;20181;-57
2021/10/09 07:37:15;;;;;;;17.30;14.80;;;10.30;99.90;;;;;;4961759;28;20181;-54
2021/10/09 07:39:41;;;;;;;16.63;14.82;;;10.50;99.90;;;;;;4966167;28;20304;-54
2021/10/09 07:42:07;;;;;;;18.57;15.53;;;10.50;99.90;;;;;;4951823;28;20280;-54
2021/10/09 07:44:33;;;;;;;17.87;14.80;;;10.60;99.90;;;;;;4948299;28;20265;-55
2021/10/09 07:46:59;;;;;;;19.17;15.57;;;10.80;99.90;;;;;;4956443;28;20177;-55
2021/10/09 07:49:24;;;;;;;18.90;15.67;;;10.70;99.90;;;;;;4951100;28;20472;-56
2021/10/09 07:51:50;;;;;;;19.83;15.10;;;10.80;99.90;;;;;;4955565;28;20281;-55
2021/10/09 07:54:16;;;;;;;18.03;16.13;;;10.60;99.90;;;;;;4955031;29;20196;-55
2021/10/09 07:56:42;;;;;;;19.88;16.48;;;10.80;99.90;;;;;;4960622;28;20191;-56
2021/10/09 07:59:07;;;;;;;16.43;14.37;;;11.10;99.90;;;;;;4953372;28;20206;-55
2021/10/09 08:01:33;;;;;;;19.03;15.70;;;10.90;99.90;;;;;;4952891;28;20191;-54
2021/10/09 08:03:59;;;;;;;16.60;14.57;;;11.00;99.90;;;;;;4958981;28;20268;-55
2021/10/09 08:06:25;;;;;;;16.38;14.30;;;11.20;99.90;;;;;;4952904;28;20209;-54
2021/10/09 08:08:51;;;;;;;18.92;15.25;;;11.40;99.90;;;;;;4952680;28;20285;-55
2021/10/09 08:11:17;;;;;;;19.43;15.93;;;11.20;99.90;;;;;;4953799;28;20184;-54
2021/10/09 08:13:43;;;;;;;16.50;14.27;;;11.40;99.90;;;;;;4949671;28;20235;-55
2021/10/09 08:16:09;;;;;;;17.67;13.97;;;11.60;99.90;;;;;;4947492;28;20491;-54
2021/10/09 08:18:35;;;;;;;18.48;13.38;;;11.90;99.90;;;;;;4955169;28;20469;-55
2021/10/09 08:21:05;;;;;;;20.73;17.10;;;12.10;99.90;;;;;;4953059;28;20580;-55
2021/10/09 08:39:29;;;;;;;15.63;13.35;;;13.50;99.90;;;;;;4954385;28;20304;-54
2021/10/09 08:41:55;;;;;;;18.57;13.77;;;13.30;99.90;;;;;;4951825;28;20335;-54
2021/10/09 08:44:21;;;;;;;13.93;12.30;;;13.00;99.90;;;;;;4950603;28;20208;-54
2021/10/09 08:46:47;;;;;;;18.93;13.50;;;13.00;99.90;;;;;;4951361;28;20197;-55
2021/10/09 08:49:19;;;;;;;14.95;13.35;;;13.20;99.90;;;;;;4953217;28;20208;-54
2021/10/09 08:51:46;;;;;;;15.55;13.45;;;13.00;99.90;;;;;;4954230;28;20218;-55
2021/10/09 08:54:13;;;;;;;16.70;14.20;;;13.20;99.90;;;;;;4952997;29;20680;-54
2021/10/09 08:56:43;;;;;;;17.42;13.45;;;13.00;99.90;;;;;;4951152;29;20466;-55
2021/10/09 08:59:17;;;;;;;14.02;12.65;;;13.40;99.90;;;;;;4944666;28;20292;-54
2021/10/09 09:01:52;;;;;;;16.42;13.45;;;13.40;99.90;;;;;;4947229;29;20191;-55
2021/10/09 09:39:42;;;;;;;17.60;14.27;;;15.30;99.00;;;;;;4946625;29;20587;-55
2021/10/09 09:42:08;;;;;;;16.48;13.85;;;15.40;99.00;;;;;;4951765;29;20203;-54
2021/10/09 09:44:35;;;;;;;18.15;14.68;;;15.90;98.30;;;;;;4947226;29;20280;-55
2021/10/09 09:47:05;;;;;;;17.77;14.30;;;16.00;98.10;;;;;;4951592;29;20195;-55
2021/10/09 09:49:32;;;;;;;14.45;12.93;;;16.20;97.60;;;;;;4944226;29;20228;-55
2021/10/09 09:51:58;;;;;;;16.88;14.93;;;16.50;96.40;;;;;;4950960;29;20220;-55
2021/10/09 09:54:29;;;;;;;15.02;13.20;;;17.30;96.10;;;;;;4944797;28;20193;-56
2021/10/09 09:57:02;;;;;;;14.10;12.35;;;18.00;93.60;;;;;;4946881;28;20272;-55
2021/10/09 09:59:33;;;;;;;15.43;13.27;;;17.80;93.00;;;;;;4939239;29;20620;-55
2021/10/09 10:02:04;;;;;;;18.88;13.95;;;17.40;93.90;;;;;;4946181;28;20754;-55
2021/10/09 10:04:32;;;;;;;15.82;14.15;;;17.30;94.30;;;;;;4954224;28;20203;-55
2021/10/09 10:07:02;;;;;;;18.15;14.25;;;16.90;95.00;;;;;;4945182;29;20560;-55
2021/10/09 10:09:29;;;;;;;16.27;14.05;;;16.90;94.80;;;;;;4952540;28;20285;-55
2021/10/09 10:11:58;;;;;;;16.67;13.93;;;16.60;95.30;;;;;;4943591;28;20218;-55
2021/10/09 10:14:28;;;;;;;18.52;14.05;;;15.80;95.80;;;;;;4946363;28;20276;-55
2021/10/09 10:16:56;;;;;;;15.05;13.60;;;16.30;96.20;;;;;;4944547;29;20569;-54
2021/10/09 10:19:50;;;;;;;16.13;14.07;;;16.30;96.00;;;;;;4951474;28;20220;-54
2021/10/09 10:22:34;;;;;;;15.57;13.15;;;16.20;96.10;;;;;;4947300;28;20200;-54
2021/10/09 10:25:00;;;;;;;14.10;12.48;;;16.30;95.60;;;;;;4949256;29;20294;-55
2021/10/09 10:27:37;;;;;;;14.48;12.77;;;16.50;95.20;;;;;;4950458;29;20189;-55
2021/10/09 10:30:15;;;;;;;14.25;12.00;;;16.30;95.10;;;;;;4947223;28;20188;-54
2021/10/09 10:33:01;;;;;;;13.40;11.93;;;16.30;95.10;;;;;;4950360;29;20686;-55
2021/10/09 10:35:29;;;;;;;14.25;11.98;;;16.20;94.20;;;;;;4950760;28;20638;-55
2021/10/09 10:38:09;;;;;;;13.45;12.15;;;16.60;94.70;;;;;;4945637;29;20606;-54
2021/10/09 10:40:45;;;;;;;14.18;11.15;;;16.50;93.60;;;;;;4950006;29;20232;-55
2021/10/09 10:44:15;;;;;;;12.90;11.60;;;16.50;93.50;;;;;;4948408;28;20609;-55
2021/10/09 10:51:45;;;;;;;15.70;12.27;;;17.10;92.60;;;;;;4947651;28;20188;-54
2021/10/09 10:56:59;;;;;;;14.25;10.48;;;18.70;88.80;;;;;;4953212;29;20189;-55
2021/10/09 10:59:57;;;;;;;11.77;10.48;;;19.50;86.60;;;;;;4946548;29;20221;-54
2021/10/09 11:02:27;;;;;;;11.48;10.07;;;19.90;85.20;;;;;;4952439;28;20500;-54
2021/10/09 11:04:54;;;;;;;11.13;9.98;;;20.40;82.10;;;;;;4954605;28;20239;-54
2021/10/09 11:07:25;;;;;;;10.45;9.45;;;20.70;79.40;;;;;;4954592;29;20200;-55
2021/10/09 11:09:51;;;;;;;11.43;9.80;;;20.70;78.90;;;;;;4945439;28;20688;-55
2021/10/09 11:12:42;;;;;;;13.37;10.50;;;20.50;78.20;;;;;;4952314;28;20240;-55
2021/10/09 11:15:17;;;;;;;11.70;10.00;;;20.00;78.70;;;;;;4953658;28;20445;-54
2021/10/09 11:17:48;;;;;;;11.77;10.57;;;19.50;80.10;;;;;;4954752;28;20650;-55
2021/10/09 11:20:37;;;;;;;11.55;9.73;;;18.10;83.50;;;;;;4957598;28;20185;-55
2021/10/09 11:23:05;;;;;;;11.85;10.63;;;18.00;84.50;;;;;;4960749;28;20204;-55
2021/10/09 11:25:32;;;;;;;12.05;10.43;;;18.00;85.50;;;;;;4955550;28;20639;-55
2021/10/09 11:28:00;;;;;;;11.25;9.45;;;17.90;85.80;;;;;;4954649;28;20224;-55
2021/10/09 11:30:27;;;;;;;11.00;9.90;;;17.80;85.60;;;;;;4951014;28;20268;-55
2021/10/09 11:32:55;;;;;;;11.93;10.63;;;17.60;85.50;;;;;;4955055;28;20181;-54
2021/10/09 11:35:41;;;;;;;10.73;9.50;;;17.80;87.40;;;;;;4959688;28;20240;-55
2021/10/09 11:38:21;;;;;;;11.38;9.38;;;17.70;86.30;;;;;;4952631;28;20264;-56
2021/10/09 11:40:53;;;;;;;10.30;9.30;;;17.50;85.70;;;;;;4961477;28;20185;-56
2021/10/09 11:55:11;;;;;;;11.50;9.55;;;17.50;88.20;;;;;;4960203;28;20278;-57
2021/10/09 11:57:06;;;;;;;9.77;8.55;;;17.40;87.60;;;;;;4958337;28;20200;-55
2021/10/09 11:59:39;;;;;;;11.10;9.90;;;17.70;87.60;;;;;;4955728;28;20212;-56
2021/10/09 12:02:06;;;;;;;11.60;9.05;;;17.60;87.70;;;;;;4955682;28;20189;-56
2021/10/09 12:04:32;;;;;;;13.70;11.45;;;17.70;87.90;;;;;;4951182;28;20217;-55
2021/10/09 12:07:08;;;;;;;20.67;17.05;;;17.80;87.90;;;;;;4956235;28;20185;-56
2021/10/09 12:09:36;;;;;;;10.77;9.73;;;17.80;88.60;;;;;;4945267;29;20209;-55
2021/10/09 12:12:34;;;;;;;13.23;9.90;;;17.90;85.60;;;;;;4952910;28;20646;-56
2021/10/09 12:15:00;;;;;;;15.57;10.25;;;18.00;86.70;;;;;;4951005;28;20207;-55
2021/10/09 12:17:37;;;;;;;10.65;9.48;;;18.10;87.00;;;;;;4957619;28;20181;-55
2021/10/09 12:20:10;;;;;;;11.98;10.70;;;18.20;85.40;;;;;;4951217;29;20299;-55
2021/10/09 12:22:42;;;;;;;11.18;10.05;;;18.30;85.20;;;;;;4951520;28;20284;-55
2021/10/09 12:25:27;;;;;;;11.35;8.88;;;18.20;86.10;;;;;;4953826;28;20658;-56
2021/10/09 12:27:55;;;;;;;11.82;9.55;;;18.30;83.80;;;;;;4949422;28;20271;-56
2021/10/09 12:30:33;;;;;;;11.75;10.60;;;18.30;84.60;;;;;;4952731;28;20272;-55
2021/10/09 12:32:59;;;;;;;11.52;9.23;;;18.20;84.90;;;;;;4951619;28;20191;-55
2021/10/09 12:35:33;;;;;;;11.15;8.60;;;18.20;84.80;;;;;;4986012;28;20188;-55
2021/10/09 12:38:08;;;;;;;10.80;9.70;;;18.20;85.20;;;;;;4950454;28;20568;-54
2021/10/09 12:40:48;;;;;;;10.43;9.43;;;18.10;84.70;;;;;;4954393;28;20246;-55
2021/10/09 12:43:18;;;;;;;11.00;10.00;;;18.10;84.50;;;;;;4956851;28;20217;-55
2021/10/09 12:45:44;;;;;;;9.98;9.07;;;18.10;85.00;;;;;;4950397;28;20553;-55
2021/10/09 12:48:10;;;;;;;10.67;9.47;;;18.00;85.20;;;;;;4953288;28;20204;-55
2021/10/09 12:50:41;;;;;;;12.33;10.13;;;17.90;85.60;;;;;;4952971;28;21012;-55
2021/10/09 12:53:07;;;;;;;13.35;10.20;;;17.90;85.70;;;;;;4950450;28;20437;-55
2021/10/09 12:55:35;;;;;;;10.77;9.77;;;17.90;85.90;;;;;;4951146;28;20192;-55
2021/10/09 12:58:07;;;;;;;12.70;9.00;;;17.90;85.40;;;;;;4952544;28;20220;-55
2021/10/09 13:00:33;;;;;;;10.95;8.75;;;17.80;85.90;;;;;;4943506;29;20279;-55
2021/10/09 13:02:59;;;;;;;12.75;9.32;;;17.70;85.40;;;;;;4950582;29;20204;-55
2021/10/09 13:05:28;;;;;;;10.25;9.05;;;17.30;85.60;;;;;;4953327;28;20684;-55
2021/10/09 13:07:54;;;;;;;11.88;10.68;;;17.30;86.30;;;;;;4952314;28;20565;-55
2021/10/09 13:10:21;;;;;;;11.82;9.73;;;17.50;85.90;;;;;;4953187;28;20185;-55
2021/10/09 13:12:51;;;;;;;9.52;8.52;;;17.50;86.00;;;;;;4949106;28;20188;-55
2021/10/09 13:15:18;;;;;;;10.20;9.07;;;17.70;86.70;;;;;;4955145;28;20212;-55
2021/10/09 13:17:45;;;;;;;10.00;9.02;;;17.70;85.90;;;;;;4953432;28;20177;-55
2021/10/09 13:20:11;;;;;;;11.52;9.23;;;17.70;86.50;;;;;;4952535;28;20189;-55
2021/10/09 13:22:37;;;;;;;11.02;8.93;;;17.70;86.00;;;;;;4951563;28;20200;-55
2021/10/09 13:25:03;;;;;;;11.50;10.40;;;17.60;86.50;;;;;;4955758;28;20205;-55
2021/10/09 13:27:33;;;;;;;15.10;12.98;;;17.60;85.70;;;;;;4955740;28;20232;-55
2021/10/09 13:30:00;;;;;;;15.43;13.27;;;17.60;87.40;;;;;;4948586;28;20205;-55
2021/10/09 13:32:25;;;;;;;11.32;9.23;;;17.60;87.40;;;;;;4952003;29;20189;-55
2021/10/09 13:34:51;;;;;;;9.90;9.00;;;17.60;86.10;;;;;;4950615;28;20200;-55
2021/10/09 13:37:21;;;;;;;10.43;8.97;;;17.70;87.10;;;;;;4950906;29;20188;-55
2021/10/09 13:39:47;;;;;;;9.38;8.40;;;17.80;86.90;;;;;;4946420;28;20240;-55
2021/10/09 13:42:14;;;;;;;10.25;9.25;;;17.80;85.30;;;;;;4952711;28;20717;-55
2021/10/09 13:44:39;;;;;;;10.90;9.88;;;17.80;85.70;;;;;;4951335;28;20201;-55
2021/10/09 13:47:05;;;;;;;14.73;12.03;;;17.50;84.50;;;;;;4948678;28;20252;-55
2021/10/09 13:49:32;;;;;;;13.53;9.77;;;17.60;86.10;;;;;;4953789;28;20291;-56
2021/10/09 13:51:58;;;;;;;11.27;8.80;;;17.60;85.30;;;;;;4954944;28;20184;-55
2021/10/09 13:54:24;;;;;;;12.07;9.85;;;17.70;85.80;;;;;;4950166;28;20200;-55
2021/10/09 13:56:50;;;;;;;8.93;8.13;;;17.60;85.40;;;;;;4950732;28;20556;-55
2021/10/09 13:59:16;;;;;;;10.40;9.40;;;17.50;85.60;;;;;;4953354;28;20426;-55
2021/10/09 14:01:44;;;;;;;9.40;8.50;;;17.50;84.80;;;;;;4948801;29;20272;-55
2021/10/09 14:04:10;;;;;;;11.52;8.85;;;17.40;85.40;;;;;;4952933;28;20465;-57
2021/10/09 14:06:36;;;;;;;10.47;9.37;;;17.60;86.90;;;;;;4951628;28;20251;-55
2021/10/09 14:09:03;;;;;;;11.55;9.60;;;17.40;86.00;;;;;;4948482;28;20205;-55
2021/10/09 14:11:29;;;;;;;11.18;8.90;;;17.40;86.10;;;;;;4945384;28;20267;-55
2021/10/09 14:13:55;;;;;;;11.87;10.17;;;17.40;85.40;;;;;;4951952;28;20323;-55
2021/10/09 14:16:20;;;;;;;9.73;8.70;;;17.20;86.40;;;;;;4950295;28;20188;-55
2021/10/09 14:18:47;;;;;;;10.13;9.13;;;17.30;85.90;;;;;;4956093;28;20460;-54
2021/10/09 14:21:12;;;;;;;9.40;8.40;;;17.20;85.90;;;;;;4950801;28;20549;-55
2021/10/09 14:23:39;;;;;;;11.10;8.47;;;17.40;85.60;;;;;;4949482;28;20204;-55
2021/10/09 14:26:06;;;;;;;8.88;8.07;;;17.30;85.20;;;;;;4956006;28;20666;-55
2021/10/09 14:28:33;;;;;;;9.35;8.40;;;17.30;87.10;;;;;;4951259;28;20256;-55
2021/10/09 14:30:59;;;;;;;10.35;8.20;;;17.40;85.80;;;;;;4941256;29;20184;-55
2021/10/09 14:33:25;;;;;;;9.38;8.40;;;17.30;86.50;;;;;;4951286;28;20192;-54
2021/10/09 14:35:50;;;;;;;9.10;8.13;;;17.30;87.00;;;;;;4947530;29;20252;-55
2021/10/09 14:38:17;;;;;;;9.83;8.83;;;17.30;86.50;;;;;;4951233;28;20976;-55
2021/10/09 14:40:43;;;;;;;10.35;8.63;;;17.30;86.80;;;;;;4949278;28;20477;-55
2021/10/09 14:43:10;;;;;;;9.02;8.13;;;17.30;86.60;;;;;;4945289;28;20209;-55
2021/10/09 14:45:37;;;;;;;9.60;8.20;;;17.40;86.60;;;;;;4950369;28;20200;-55
2021/10/09 14:48:13;;;;;;;14.30;11.30;;;17.40;88.70;;;;;;4951205;28;20712;-55
2021/10/09 14:53:19;;;;;;;9.13;8.23;;;17.10;86.50;;;;;;4961811;28;20666;-55
2021/10/09 15:20:15;;;;;;;8.43;7.63;;;17.00;86.00;;;;;;4950493;28;20201;-55
2021/10/09 15:22:41;;;;;;;11.27;8.00;;;17.20;86.70;;;;;;4953512;28;20200;-56
2021/10/09 15:25:07;;;;;;;9.73;8.27;;;17.10;87.50;;;;;;4950604;28;20204;-55
2021/10/09 15:27:32;;;;;;;8.75;7.70;;;17.10;85.90;;;;;;4952923;28;20440;-55
2021/10/09 15:29:58;;;;;;;8.63;7.60;;;17.10;86.50;;;;;;4951115;28;20546;-55
2021/10/09 15:32:25;;;;;;;7.50;6.80;;;17.00;86.40;;;;;;4950952;28;20189;-55
2021/10/09 15:34:51;;;;;;;12.80;6.88;;;17.00;85.00;;;;;;4953775;28;20453;-55